sensor_id;sensor_type;location;lat;lon;timestamp;pressure;altitude;pressure_sealevel;temperature;humidity
45941;BME280;31858;46.008;8.978;2022-11-20T00:05:17;93690.00;;;7.00;46.36
45941;BME280;31858;46.008;8.978;2022-11-20T00:15:19;93698.38;;;7.09;45.68
45941;BME280;31858;46.008;8.978;2022-11-20T00:25:22;93705.19;;;7.07;46.28
45941;BME280;31858;46.008;8.978;2022-11-20T00:35:24;93721.06;;;7.03;45.85
45941;BME280;31858;46.008;8.978;2022-11-20T00:45:27;93736.09;;;6.92;44.15
45941;BME280;31858;46.008;8.978;2022-11-20T00:55:28;93728.59;;;7.01;46.14
45941;BME280;31858;46.008;8.978;2022-11-20T01:05:35;93722.84;;;6.92;47.43
45941;BME280;31858;46.008;8.978;2022-11-20T01:15:36;93730.78;;;6.88;45.71
45941;BME280;31858;46.008;8.978;2022-11-20T01:25:39;93736.00;;;6.81;48.46
45941;BME280;31858;46.008;8.978;2022-11-20T01:35:41;93741.88;;;6.61;49.11
45941;BME280;31858;46.008;8.978;2022-11-20T01:46:02;93745.94;;;6.47;48.19
45941;BME280;31858;46.008;8.978;2022-11-20T01:56:06;93745.19;;;6.50;47.51
45941;BME280;31858;46.008;8.978;2022-11-20T02:06:14;93751.22;;;6.44;49.42
45941;BME280;31858;46.008;8.978;2022-11-20T02:16:21;93748.81;;;6.32;48.37
45941;BME280;31858;46.008;8.978;2022-11-20T02:26:26;93748.06;;;6.31;48.64
45941;BME280;31858;46.008;8.978;2022-11-20T02:36:30;93751.44;;;6.28;50.30
45941;BME280;31858;46.008;8.978;2022-11-20T02:46:34;93756.19;;;6.15;51.29
45941;BME280;31858;46.008;8.978;2022-11-20T02:56:37;93759.28;;;6.21;51.35
45941;BME280;31858;46.008;8.978;2022-11-20T03:06:40;93767.19;;;6.17;49.61
45941;BME280;31858;46.008;8.978;2022-11-20T03:16:42;93751.59;;;6.09;49.29
45941;BME280;31858;46.008;8.978;2022-11-20T03:26:45;93756.97;;;6.16;49.95
45941;BME280;31858;46.008;8.978;2022-11-20T03:36:46;93762.06;;;5.98;50.90
45941;BME280;31858;46.008;8.978;2022-11-20T03:46:49;93758.31;;;6.03;50.92
45941;BME280;31858;46.008;8.978;2022-11-20T03:56:51;93762.91;;;6.06;50.79
45941;BME280;31858;46.008;8.978;2022-11-20T04:06:54;93773.16;;;6.11;51.72
45941;BME280;31858;46.008;8.978;2022-11-20T04:16:55;93768.50;;;6.01;52.17
45941;BME280;31858;46.008;8.978;2022-11-20T04:26:58;93774.91;;;6.00;50.89
45941;BME280;31858;46.008;8.978;2022-11-20T04:37:00;93772.91;;;5.89;52.53
45941;BME280;31858;46.008;8.978;2022-11-20T04:47:03;93774.47;;;5.94;49.07
45941;BME280;31858;46.008;8.978;2022-11-20T04:57:05;93782.22;;;6.10;51.55
45941;BME280;31858;46.008;8.978;2022-11-20T05:07:08;93786.56;;;5.95;52.20
45941;BME280;31858;46.008;8.978;2022-11-20T05:17:10;93802.31;;;5.88;51.28
45941;BME280;31858;46.008;8.978;2022-11-20T05:27:14;93806.03;;;5.83;52.22
45941;BME280;31858;46.008;8.978;2022-11-20T05:37:15;93818.94;;;5.88;51.34
45941;BME280;31858;46.008;8.978;2022-11-20T05:47:18;93832.47;;;5.83;51.11
45941;BME280;31858;46.008;8.978;2022-11-20T05:57:20;93829.94;;;5.91;48.61
45941;BME280;31858;46.008;8.978;2022-11-20T06:07:23;93840.03;;;5.85;50.18
45941;BME280;31858;46.008;8.978;2022-11-20T06:17:24;93844.13;;;6.05;48.75
45941;BME280;31858;46.008;8.978;2022-11-20T06:27:28;93860.75;;;6.06;49.94
45941;BME280;31858;46.008;8.978;2022-11-20T06:37:29;93876.56;;;6.02;51.44
45941;BME280;31858;46.008;8.978;2022-11-20T06:47:32;93876.91;;;6.01;48.33
45941;BME280;31858;46.008;8.978;2022-11-20T06:57:34;93894.09;;;6.14;48.47
45941;BME280;31858;46.008;8.978;2022-11-20T07:07:37;93889.72;;;6.25;49.34
45941;BME280;31858;46.008;8.978;2022-11-20T07:17:38;93911.84;;;6.13;49.05
45941;BME280;31858;46.008;8.978;2022-11-20T07:27:41;93926.56;;;6.11;53.34
45941;BME280;31858;46.008;8.978;2022-11-20T07:37:43;93942.56;;;5.95;50.73
45941;BME280;31858;46.008;8.978;2022-11-20T07:47:47;93927.69;;;6.10;48.03
45941;BME280;31858;46.008;8.978;2022-11-20T07:57:54;93928.84;;;6.12;49.34
45941;BME280;31858;46.008;8.978;2022-11-20T08:07:57;93947.00;;;6.14;47.99
45941;BME280;31858;46.008;8.978;2022-11-20T08:18:00;93965.94;;;6.16;46.26
45941;BME280;31858;46.008;8.978;2022-11-20T08:28:05;93969.78;;;6.22;46.59
45941;BME280;31858;46.008;8.978;2022-11-20T08:38:07;93971.16;;;6.39;44.49
45941;BME280;31858;46.008;8.978;2022-11-20T08:48:10;93970.84;;;6.44;45.67
45941;BME280;31858;46.008;8.978;2022-11-20T08:58:11;93982.25;;;6.51;44.56
45941;BME280;31858;46.008;8.978;2022-11-20T09:08:14;93972.88;;;6.87;45.97
45941;BME280;31858;46.008;8.978;2022-11-20T09:18:16;93970.63;;;6.90;44.51
45941;BME280;31858;46.008;8.978;2022-11-20T09:28:18;93970.31;;;6.95;43.74
45941;BME280;31858;46.008;8.978;2022-11-20T09:38:20;93971.25;;;7.09;46.76
45941;BME280;31858;46.008;8.978;2022-11-20T09:48:36;93975.47;;;7.51;45.92
45941;BME280;31858;46.008;8.978;2022-11-20T09:58:44;93959.28;;;7.63;47.63
45941;BME280;31858;46.008;8.978;2022-11-20T10:08:54;93952.59;;;7.83;44.64
45941;BME280;31858;46.008;8.978;2022-11-20T10:19:09;93940.59;;;8.00;44.04
45941;BME280;31858;46.008;8.978;2022-11-20T10:29:18;93938.47;;;8.20;45.48
45941;BME280;31858;46.008;8.978;2022-11-20T10:39:26;93939.03;;;8.47;48.71
45941;BME280;31858;46.008;8.978;2022-11-20T10:49:32;93940.22;;;8.60;51.40
45941;BME280;31858;46.008;8.978;2022-11-20T10:59:55;93930.91;;;9.02;43.85
45941;BME280;31858;46.008;8.978;2022-11-20T11:10:14;93923.00;;;9.41;45.99
45941;BME280;31858;46.008;8.978;2022-11-20T11:20:18;93919.22;;;9.56;46.25
45941;BME280;31858;46.008;8.978;2022-11-20T11:30:23;93902.50;;;9.95;45.13
45941;BME280;31858;46.008;8.978;2022-11-20T11:40:25;93891.84;;;9.98;43.55
45941;BME280;31858;46.008;8.978;2022-11-20T11:50:31;93898.66;;;10.31;44.51
45941;BME280;31858;46.008;8.978;2022-11-20T12:00:33;93887.91;;;10.56;44.04
45941;BME280;31858;46.008;8.978;2022-11-20T12:10:43;93864.59;;;10.78;41.04
45941;BME280;31858;46.008;8.978;2022-11-20T12:20:48;93861.06;;;11.02;40.02
45941;BME280;31858;46.008;8.978;2022-11-20T12:31:10;93856.41;;;11.17;43.16
45941;BME280;31858;46.008;8.978;2022-11-20T12:41:23;93851.38;;;11.30;42.56
45941;BME280;31858;46.008;8.978;2022-11-20T12:52:13;93844.81;;;11.41;42.19
45941;BME280;31858;46.008;8.978;2022-11-20T13:02:24;93841.31;;;11.48;38.82
45941;BME280;31858;46.008;8.978;2022-11-20T13:12:34;93842.06;;;11.52;37.66
45941;BME280;31858;46.008;8.978;2022-11-20T13:22:44;93822.56;;;11.59;39.17
45941;BME280;31858;46.008;8.978;2022-11-20T13:32:53;93828.66;;;11.59;38.85
45941;BME280;31858;46.008;8.978;2022-11-20T13:43:02;93819.13;;;11.62;38.48
45941;BME280;31858;46.008;8.978;2022-11-20T13:53:13;93791.34;;;11.56;38.30
45941;BME280;31858;46.008;8.978;2022-11-20T14:03:23;93786.09;;;11.45;39.79
45941;BME280;31858;46.008;8.978;2022-11-20T14:13:27;93787.63;;;11.46;36.93
45941;BME280;31858;46.008;8.978;2022-11-20T14:23:29;93801.75;;;11.39;35.61
45941;BME280;31858;46.008;8.978;2022-11-20T14:33:33;93802.22;;;11.31;37.54
45941;BME280;31858;46.008;8.978;2022-11-20T14:43:36;93798.72;;;11.37;36.20
45941;BME280;31858;46.008;8.978;2022-11-20T14:53:39;93793.72;;;11.43;35.50
45941;BME280;31858;46.008;8.978;2022-11-20T15:03:42;93804.47;;;11.36;36.59
45941;BME280;31858;46.008;8.978;2022-11-20T15:13:45;93811.41;;;11.23;35.88
45941;BME280;31858;46.008;8.978;2022-11-20T15:23:47;93819.88;;;11.10;36.01
45941;BME280;31858;46.008;8.978;2022-11-20T15:33:50;93823.13;;;10.73;37.75
45941;BME280;31858;46.008;8.978;2022-11-20T15:43:51;93828.66;;;10.34;44.48
45941;BME280;31858;46.008;8.978;2022-11-20T15:53:55;93826.47;;;9.97;49.12
45941;BME280;31858;46.008;8.978;2022-11-20T16:03:57;93820.03;;;9.77;50.78
45941;BME280;31858;46.008;8.978;2022-11-20T16:14:00;93839.44;;;9.56;49.00
45941;BME280;31858;46.008;8.978;2022-11-20T16:24:19;93845.50;;;9.28;51.33
45941;BME280;31858;46.008;8.978;2022-11-20T16:34:22;93842.09;;;9.03;54.32
45941;BME280;31858;46.008;8.978;2022-11-20T16:44:24;93851.16;;;8.91;56.90
45941;BME280;31858;46.008;8.978;2022-11-20T16:54:26;93838.63;;;8.81;58.85
45941;BME280;31858;46.008;8.978;2022-11-20T17:04:28;93853.78;;;8.70;57.69
45941;BME280;31858;46.008;8.978;2022-11-20T17:14:31;93867.06;;;8.73;56.88
45941;BME280;31858;46.008;8.978;2022-11-20T17:24:32;93848.38;;;8.48;54.25
45941;BME280;31858;46.008;8.978;2022-11-20T17:34:35;93888.81;;;8.21;58.60
45941;BME280;31858;46.008;8.978;2022-11-20T17:44:37;93884.47;;;7.95;58.86
45941;BME280;31858;46.008;8.978;2022-11-20T17:54:42;93880.59;;;7.78;58.00
45941;BME280;31858;46.008;8.978;2022-11-20T18:04:43;93860.78;;;7.61;56.60
45941;BME280;31858;46.008;8.978;2022-11-20T18:14:47;93868.34;;;7.59;59.55
45941;BME280;31858;46.008;8.978;2022-11-20T18:24:48;93903.06;;;7.43;60.48
45941;BME280;31858;46.008;8.978;2022-11-20T18:34:52;93880.78;;;7.51;58.64
45941;BME280;31858;46.008;8.978;2022-11-20T18:44:53;93885.25;;;7.44;59.52
45941;BME280;31858;46.008;8.978;2022-11-20T18:54:56;93876.84;;;7.35;61.51
45941;BME280;31858;46.008;8.978;2022-11-20T19:04:58;93842.75;;;7.30;61.39
45941;BME280;31858;46.008;8.978;2022-11-20T19:15:01;93832.47;;;7.25;60.05
45941;BME280;31858;46.008;8.978;2022-11-20T19:25:03;93860.72;;;7.06;57.93
45941;BME280;31858;46.008;8.978;2022-11-20T19:35:07;93853.50;;;7.03;62.93
45941;BME280;31858;46.008;8.978;2022-11-20T19:45:08;93866.34;;;7.01;60.44
45941;BME280;31858;46.008;8.978;2022-11-20T19:55:11;93848.00;;;6.82;60.95
45941;BME280;31858;46.008;8.978;2022-11-20T20:05:13;93850.59;;;6.78;61.18
45941;BME280;31858;46.008;8.978;2022-11-20T20:15:16;93873.19;;;6.69;58.83
45941;BME280;31858;46.008;8.978;2022-11-20T20:25:18;93853.81;;;6.61;60.39
45941;BME280;31858;46.008;8.978;2022-11-20T20:35:21;93875.72;;;6.58;60.45
45941;BME280;31858;46.008;8.978;2022-11-20T20:45:22;93892.38;;;6.59;62.68
45941;BME280;31858;46.008;8.978;2022-11-20T20:55:25;93916.38;;;6.76;62.15
45941;BME280;31858;46.008;8.978;2022-11-20T21:05:27;93921.56;;;6.99;59.05
45941;BME280;31858;46.008;8.978;2022-11-20T21:15:30;93888.25;;;6.98;61.94
45941;BME280;31858;46.008;8.978;2022-11-20T21:25:35;93904.19;;;7.02;61.25
45941;BME280;31858;46.008;8.978;2022-11-20T21:35:38;93898.53;;;6.70;58.84
45941;BME280;31858;46.008;8.978;2022-11-20T21:45:40;93895.41;;;6.61;59.44
45941;BME280;31858;46.008;8.978;2022-11-20T21:55:52;93894.94;;;6.51;58.97
45941;BME280;31858;46.008;8.978;2022-11-20T22:05:53;93883.53;;;6.44;58.13
45941;BME280;31858;46.008;8.978;2022-11-20T22:16:01;93886.84;;;6.37;59.25
45941;BME280;31858;46.008;8.978;2022-11-20T22:26:03;93889.09;;;6.35;56.48
45941;BME280;31858;46.008;8.978;2022-11-20T22:36:09;93885.50;;;6.20;53.67
45941;BME280;31858;46.008;8.978;2022-11-20T22:46:12;93886.38;;;6.02;54.98
45941;BME280;31858;46.008;8.978;2022-11-20T22:56:16;93872.75;;;6.00;58.12
45941;BME280;31858;46.008;8.978;2022-11-20T23:06:19;93876.81;;;5.94;59.56
45941;BME280;31858;46.008;8.978;2022-11-20T23:16:23;93884.66;;;5.64;59.69
45941;BME280;31858;46.008;8.978;2022-11-20T23:26:27;93863.88;;;5.88;57.06
45941;BME280;31858;46.008;8.978;2022-11-20T23:36:31;93854.22;;;5.73;59.41
45941;BME280;31858;46.008;8.978;2022-11-20T23:46:32;93838.38;;;5.73;56.69
45941;BME280;31858;46.008;8.978;2022-11-20T23:56:35;93858.59;;;5.62;57.00
